Time;durP1;ratioP1;P1;durP2;ratioP2;P2;SDS_P1;SDS_P2;PMS_P1;PMS_P2;Temp;Humidity;BMP_temperature;BMP_pressure;BME280_temperature;BME280_humidity;BME280_pressure;Samples;Min_cycle;Max_cycle;Signal;HPM_P1;HPM_P2
2022/10/31 00:00:54;;;;;;;;;8.25;8.25;;;;;16.93;68.95;101631.72;5055654;28;45443;-72
2022/10/31 00:03:19;;;;;;;;;9.00;9.00;;;;;16.90;69.10;101631.94;5054752;28;45471;-73
2022/10/31 00:05:47;;;;;;;;;9.75;9.75;;;;;16.93;68.83;101643.34;5054887;28;45564;-72
2022/10/31 00:08:12;;;;;;;;;9.75;9.75;;;;;16.92;69.00;101651.53;5055604;28;47125;-71
2022/10/31 00:10:42;;;;;;;;;10.25;10.25;;;;;16.90;68.92;101650.81;5046047;28;45508;-72
2022/10/31 00:13:08;;;;;;;;;13.50;13.00;;;;;16.90;68.63;101653.50;5048957;28;45324;-71
2022/10/31 00:15:37;;;;;;;;;11.00;10.00;;;;;16.90;68.85;101658.88;5037848;28;45536;-71
2022/10/31 00:18:04;;;;;;;;;6.25;4.75;;;;;16.89;68.66;101663.38;5054820;28;47269;-71
2022/10/31 00:20:30;;;;;;;;;13.75;13.50;;;;;16.88;68.74;101674.25;5055131;28;45440;-72
2022/10/31 00:22:59;;;;;;;;;13.50;12.25;;;;;16.78;68.87;101661.44;5043801;28;45234;-72
2022/10/31 00:25:26;;;;;;;;;13.75;13.00;;;;;16.76;68.89;101673.28;5050938;28;45451;-72
2022/10/31 00:27:52;;;;;;;;;12.75;12.75;;;;;16.73;68.85;101657.34;5051971;28;46502;-72
2022/10/31 00:30:18;;;;;;;;;15.00;11.25;;;;;16.73;69.06;101663.59;5054906;28;45403;-72
2022/10/31 00:32:43;;;;;;;;;12.00;11.50;;;;;16.73;69.16;101666.28;5045067;28;45456;-72
2022/10/31 00:35:08;;;;;;;;;12.25;12.25;;;;;16.69;69.13;101664.78;5048207;28;45424;-72
2022/10/31 00:37:34;;;;;;;;;12.75;10.25;;;;;16.69;69.25;101661.22;5054484;28;45397;-72
2022/10/31 00:39:59;;;;;;;;;11.25;8.75;;;;;16.65;69.30;101650.69;5041803;28;45469;-72
2022/10/31 00:42:25;;;;;;;;;12.75;10.75;;;;;16.60;69.56;101651.94;5055063;28;45480;-72
2022/10/31 00:44:50;;;;;;;;;13.25;11.50;;;;;16.56;69.14;101645.06;5043868;28;45348;-72
2022/10/31 00:47:15;;;;;;;;;12.25;12.25;;;;;16.58;69.62;101654.75;5049497;28;47281;-72
2022/10/31 00:49:41;;;;;;;;;13.00;11.50;;;;;16.57;69.51;101652.19;5038257;28;45348;-72
2022/10/31 00:52:06;;;;;;;;;12.00;12.00;;;;;16.55;69.62;101660.38;5054889;28;45460;-71
2022/10/31 00:54:31;;;;;;;;;11.00;11.00;;;;;16.54;70.02;101653.25;5055153;28;45363;-71
2022/10/31 00:56:57;;;;;;;;;12.00;12.00;;;;;16.53;70.15;101650.66;5043381;28;45436;-71
2022/10/31 00:59:23;;;;;;;;;14.75;13.50;;;;;16.52;70.24;101649.81;5052992;28;46588;-71
2022/10/31 01:01:48;;;;;;;;;12.00;12.00;;;;;16.37;70.34;101627.53;5038355;28;45528;-71
2022/10/31 01:04:14;;;;;;;;;14.25;14.25;;;;;16.50;70.44;101649.06;5049626;28;45464;-71
2022/10/31 01:06:39;;;;;;;;;15.25;12.25;;;;;16.51;70.80;101655.31;5043912;28;47088;-71
2022/10/31 01:09:04;;;;;;;;;12.25;9.00;;;;;16.54;70.90;101655.09;5042237;28;45419;-71
2022/10/31 01:11:30;;;;;;;;;16.00;14.25;;;;;16.54;70.72;101647.00;5050380;28;45530;-72
2022/10/31 01:13:55;;;;;;;;;10.50;9.00;;;;;16.54;70.88;101642.47;5054451;28;45481;-72
2022/10/31 01:16:23;;;;;;;;;11.25;11.25;;;;;16.21;71.13;101581.97;5048018;28;46110;-72
2022/10/31 01:18:49;;;;;;;;;11.75;10.25;;;;;16.49;71.06;101612.31;5045123;28;45377;-72
2022/10/31 01:21:17;;;;;;;;;12.00;11.00;;;;;16.60;71.20;101625.91;5053095;28;45413;-72
2022/10/31 01:23:42;;;;;;;;;10.50;10.50;;;;;16.42;70.91;101589.50;5053875;28;45637;-72
2022/10/31 01:26:21;;;;;;;;;15.50;14.50;;;;;16.52;71.16;101595.06;5049449;28;46329;-72
2022/10/31 01:28:53;;;;;;;;;14.00;12.50;;;;;16.67;71.30;101611.97;5044363;28;45381;-71
2022/10/31 01:31:21;;;;;;;;;10.75;10.75;;;;;16.66;71.36;101603.03;5048357;28;45514;-71
2022/10/31 01:33:47;;;;;;;;;13.00;9.75;;;;;16.54;71.50;101571.59;5054636;28;45389;-71
2022/10/31 01:36:22;;;;;;;;;15.50;13.25;;;;;16.77;71.48;101604.97;5052495;28;47163;-72
2022/10/31 01:38:49;;;;;;;;;16.00;13.00;;;;;16.77;71.52;101600.44;5054236;28;45544;-71
2022/10/31 01:41:17;;;;;;;;;13.00;10.25;;;;;16.68;71.68;101573.31;5040517;28;45385;-71
2022/10/31 01:43:48;;;;;;;;;10.25;9.00;;;;;16.77;71.72;101588.81;5050854;28;45493;-71
2022/10/31 01:46:19;;;;;;;;;13.25;11.00;;;;;16.37;71.75;101521.63;5040060;28;45374;-72
2022/10/31 01:48:46;;;;;;;;;11.50;10.50;;;;;16.58;71.88;101552.41;5043807;28;45428;-71
2022/10/31 01:51:13;;;;;;;;;11.00;11.00;;;;;16.80;72.07;101586.75;5058335;28;45523;-71
2022/10/31 01:53:39;;;;;;;;;9.25;9.25;;;;;16.88;71.90;101580.78;5051677;28;45255;-72
2022/10/31 01:56:06;;;;;;;;;10.50;10.50;;;;;16.89;71.99;101584.38;5049376;28;46116;-71
2022/10/31 01:58:32;;;;;;;;;12.50;10.50;;;;;16.90;71.88;101580.75;5048400;28;45581;-71
2022/10/31 02:00:59;;;;;;;;;11.50;11.50;;;;;16.77;72.24;101557.31;5045407;28;45281;-71
2022/10/31 02:03:25;;;;;;;;;13.25;12.50;;;;;16.89;72.17;101576.28;5069020;28;45516;-71
2022/10/31 02:05:54;;;;;;;;;11.00;11.00;;;;;16.90;72.33;101578.03;5057292;28;46897;-70
2022/10/31 02:08:33;;;;;;;;;10.25;10.25;;;;;16.92;72.30;101576.94;5053402;28;45405;-71
2022/10/31 02:11:01;;;;;;;;;9.50;8.75;;;;;16.79;72.38;101559.94;5050873;28;45450;-71
2022/10/31 02:13:28;;;;;;;;;12.75;10.75;;;;;16.85;72.16;101562.16;5064589;28;45516;-71
2022/10/31 02:15:57;;;;;;;;;14.00;11.75;;;;;16.88;72.23;101567.31;5028167;28;45554;-72
2022/10/31 02:18:26;;;;;;;;;15.00;14.00;;;;;16.94;72.57;101587.63;5046834;28;45496;-72
2022/10/31 02:21:06;;;;;;;;;13.25;13.25;;;;;16.96;72.47;101577.56;5046958;28;45545;-72
2022/10/31 02:23:53;;;;;;;;;12.75;12.25;;;;;16.96;72.44;101577.56;5052866;28;45482;-72
2022/10/31 02:26:46;;;;;;;;;15.50;14.50;;;;;16.97;72.84;101569.38;5046050;28;46281;-71
2022/10/31 02:29:36;;;;;;;;;13.00;12.00;;;;;17.00;72.40;101565.59;5045018;28;45271;-70
2022/10/31 02:32:30;;;;;;;;;15.00;13.00;;;;;17.00;72.32;101564.75;5046310;28;45581;-71
2022/10/31 02:35:13;;;;;;;;;19.00;16.50;;;;;16.98;72.16;101554.94;5044357;28;45554;-71
2022/10/31 02:38:02;;;;;;;;;10.50;10.50;;;;;16.98;73.25;101560.31;5044963;28;47521;-71
2022/10/31 02:40:36;;;;;;;;;12.75;12.75;;;;;17.03;73.45;101559.97;5044508;28;45749;-71
2022/10/31 02:43:20;;;;;;;;;16.75;15.50;;;;;17.04;73.16;101550.06;5047133;28;45370;-71
2022/10/31 02:45:54;;;;;;;;;12.75;12.25;;;;;17.02;73.24;101538.53;5055229;28;45329;-71
2022/10/31 02:48:26;;;;;;;;;14.25;14.25;;;;;17.07;73.32;101542.63;5042490;28;46715;-71
2022/10/31 02:50:59;;;;;;;;;17.50;16.50;;;;;17.07;73.22;101542.63;5046064;28;45739;-71
2022/10/31 02:53:25;;;;;;;;;16.00;15.00;;;;;17.06;73.21;101540.00;5054182;28;45282;-71
2022/10/31 02:56:06;;;;;;;;;16.00;16.00;;;;;17.00;73.09;101527.88;5050028;28;45350;-71
2022/10/31 02:58:37;;;;;;;;;16.00;15.50;;;;;17.07;73.15;101534.53;5055084;28;46028;-71
2022/10/31 03:01:28;;;;;;;;;19.25;15.50;;;;;16.96;73.26;101508.38;5045685;28;45414;-71
2022/10/31 03:04:15;;;;;;;;;12.00;12.00;;;;;17.11;73.38;101536.03;5056049;28;45255;-71
2022/10/31 03:06:46;;;;;;;;;18.00;16.25;;;;;17.13;73.22;101542.16;5046994;28;45540;-71
2022/10/31 03:09:38;;;;;;;;;20.75;19.25;;;;;17.10;73.41;101534.31;5049666;28;46153;-71
2022/10/31 03:12:13;;;;;;;;;16.50;16.50;;;;;16.93;73.06;101505.91;5040601;28;45453;-71
2022/10/31 03:14:43;;;;;;;;;17.25;17.25;;;;;17.12;73.58;101535.03;5056719;28;45556;-71
2022/10/31 03:17:20;;;;;;;;;20.00;17.75;;;;;17.10;73.36;101531.59;5042803;28;45361;-71
2022/10/31 03:19:49;;;;;;;;;17.25;15.00;;;;;17.10;73.45;101526.22;5052842;28;45315;-71
2022/10/31 03:22:22;;;;;;;;;19.00;18.00;;;;;17.12;73.72;101524.25;5042118;28;45482;-71
2022/10/31 03:24:51;;;;;;;;;14.75;14.75;;;;;17.11;73.36;101522.56;5045986;28;45506;-71
2022/10/31 03:27:23;;;;;;;;;15.25;14.25;;;;;17.01;73.12;101509.88;5050497;28;45796;-71
2022/10/31 03:29:52;;;;;;;;;17.50;15.50;;;;;16.61;73.45;101440.91;5068357;28;47746;-71
2022/10/31 03:32:24;;;;;;;;;18.50;18.50;;;;;16.91;73.34;101482.72;5057938;28;45459;-71
2022/10/31 03:34:53;;;;;;;;;19.50;15.75;;;;;17.10;73.46;101514.56;5056597;28;45467;-71
2022/10/31 03:37:22;;;;;;;;;21.50;19.50;;;;;17.11;73.16;101514.47;5041636;28;45265;-70
2022/10/31 03:39:49;;;;;;;;;20.75;18.00;;;;;16.89;73.50;101471.19;5052196;28;46210;-71
2022/10/31 03:42:21;;;;;;;;;21.25;19.50;;;;;17.11;73.67;101508.19;5057368;28;45437;-71
2022/10/31 03:44:53;;;;;;;;;22.50;22.50;;;;;17.12;73.46;101505.38;5046017;28;45331;-71
2022/10/31 03:47:19;;;;;;;;;23.00;22.75;;;;;17.09;72.98;101492.13;5051022;28;45241;-71
2022/10/31 03:49:44;;;;;;;;;25.00;23.50;;;;;17.06;72.93;101487.00;5039063;28;46221;-71
2022/10/31 03:52:39;;;;;;;;;31.75;27.00;;;;;17.03;73.04;101483.66;5050564;28;45381;-71
2022/10/31 03:55:23;;;;;;;;;22.75;21.75;;;;;17.02;73.01;101481.94;5048570;28;45443;-71
2022/10/31 03:57:49;;;;;;;;;23.50;23.25;;;;;17.04;73.50;101483.53;5042199;28;45599;-71
2022/10/31 04:00:16;;;;;;;;;24.75;23.75;;;;;17.05;73.62;101482.56;5050079;28;45325;-71
2022/10/31 04:02:50;;;;;;;;;20.75;20.25;;;;;17.07;73.60;101488.72;5045465;28;45239;-72
2022/10/31 04:05:17;;;;;;;;;28.50;24.50;;;;;17.05;73.51;101474.47;5041569;28;45370;-71
2022/10/31 04:07:47;;;;;;;;;28.00;27.50;;;;;16.85;73.74;101440.06;5052128;28;45520;-71
2022/10/31 04:10:15;;;;;;;;;27.00;23.75;;;;;16.58;73.60;101398.88;5040975;28;46030;-71
2022/10/31 04:12:48;;;;;;;;;24.50;24.50;;;;;17.11;73.73;101482.13;5046444;28;45366;-71
2022/10/31 04:15:13;;;;;;;;;26.25;24.50;;;;;17.11;73.38;101484.81;5049091;28;45348;-71
2022/10/31 04:17:41;;;;;;;;;25.00;23.50;;;;;17.09;73.50;101485.91;5039344;28;45298;-71
2022/10/31 04:20:08;;;;;;;;;23.00;21.50;;;;;17.09;73.61;101484.06;5050402;28;46432;-71
2022/10/31 04:22:33;;;;;;;;;24.00;24.00;;;;;16.95;73.36;101460.84;5043602;28;45402;-71
2022/10/31 04:24:58;;;;;;;;;24.25;23.75;;;;;17.10;73.63;101484.91;5043687;28;45503;-71
2022/10/31 04:27:24;;;;;;;;;27.50;26.75;;;;;17.08;73.54;101478.78;5050839;28;45507;-71
2022/10/31 04:29:49;;;;;;;;;24.00;22.25;;;;;16.74;73.62;101433.63;5038991;28;50265;-71
2022/10/31 04:32:14;;;;;;;;;21.00;19.75;;;;;17.04;73.66;101482.69;5049355;28;45459;-70
2022/10/31 04:34:40;;;;;;;;;24.00;23.25;;;;;17.05;73.68;101482.56;5045071;28;45501;-71
2022/10/31 04:37:05;;;;;;;;;24.00;23.00;;;;;17.02;73.70;101474.72;5054939;28;45408;-71
2022/10/31 04:39:30;;;;;;;;;26.75;25.75;;;;;16.97;73.74;101466.97;5037617;28;45433;-71
2022/10/31 04:41:55;;;;;;;;;20.75;20.75;;;;;16.80;73.75;101437.69;5051847;28;45393;-70
2022/10/31 04:44:21;;;;;;;;;24.75;21.75;;;;;17.01;73.82;101475.69;5057618;28;45632;-71
2022/10/31 04:46:46;;;;;;;;;0.75;0.00;;;;;17.00;74.14;101470.41;5045234;28;45508;-71
2022/10/31 04:49:12;;;;;;;;;26.50;25.75;;;;;16.97;73.82;101456.19;5048856;28;47106;-71
2022/10/31 04:51:37;;;;;;;;;27.50;25.50;;;;;16.96;74.26;101449.09;5038401;28;45413;-71
2022/10/31 04:54:03;;;;;;;;;23.50;22.50;;;;;16.90;74.09;101435.22;5051146;28;45731;-71
2022/10/31 04:56:28;;;;;;;;;25.75;23.50;;;;;16.98;74.11;101447.13;5042601;28;45475;-70
2022/10/31 04:58:53;;;;;;;;;23.25;22.25;;;;;16.93;73.93;101427.75;5055025;28;47464;-71
2022/10/31 05:01:19;;;;;;;;;13.75;12.50;;;;;17.04;73.96;101440.41;5040087;28;45501;-71
2022/10/31 05:03:44;;;;;;;;;25.75;25.00;;;;;17.05;74.04;101439.44;5051518;28;45290;-70
2022/10/31 05:06:09;;;;;;;;;27.75;26.75;;;;;17.05;74.18;101425.97;5038654;28;45421;-71
2022/10/31 05:08:35;;;;;;;;;20.25;19.75;;;;;16.99;74.18;101421.03;5046258;28;45470;-71
2022/10/31 05:11:04;;;;;;;;;26.00;26.00;;;;;16.94;73.99;101410.63;5046649;28;45396;-70
2022/10/31 05:13:29;;;;;;;;;21.50;21.50;;;;;17.05;74.51;101431.34;5038835;28;45382;-71
2022/10/31 05:15:54;;;;;;;;;23.00;20.50;;;;;17.08;74.53;101431.13;5051271;28;45565;-71
2022/10/31 05:18:20;;;;;;;;;21.75;20.75;;;;;16.83;74.03;101383.59;5039984;28;47023;-71
2022/10/31 05:20:45;;;;;;;;;27.00;24.25;;;;;16.93;74.57;101403.50;5053065;28;45398;-71
2022/10/31 05:23:10;;;;;;;;;29.75;26.25;;;;;17.03;74.48;101411.72;5054703;28;45952;-71
2022/10/31 05:25:36;;;;;;;;;22.75;21.50;;;;;17.02;74.36;101415.44;5038029;28;45440;-71
2022/10/31 05:28:01;;;;;;;;;26.50;23.75;;;;;17.08;74.39;101416.78;5050555;28;45560;-71
2022/10/31 05:30:29;;;;;;;;;24.50;24.50;;;;;17.11;74.65;101412.03;5041905;28;45416;-72
2022/10/31 05:32:55;;;;;;;;;30.25;27.50;;;;;17.09;74.36;101415.81;5054008;28;45337;-70
2022/10/31 05:35:24;;;;;;;;;23.25;21.75;;;;;16.77;74.92;101360.66;5039610;28;45317;-71
2022/10/31 05:37:49;;;;;;;;;20.25;20.00;;;;;17.06;74.07;101406.13;5050371;28;46371;-71
2022/10/31 05:40:16;;;;;;;;;24.50;22.25;;;;;17.10;74.46;101404.03;5040030;28;45394;-71
2022/10/31 05:42:43;;;;;;;;;24.75;22.50;;;;;17.09;74.18;101400.50;5054686;28;45378;-71
2022/10/31 05:45:16;;;;;;;;;25.50;23.25;;;;;17.11;74.24;101393.16;5041107;28;45537;-70
2022/10/31 05:47:42;;;;;;;;;19.25;19.25;;;;;16.97;74.08;101369.09;5053155;28;46386;-72
2022/10/31 05:50:09;;;;;;;;;23.00;23.00;;;;;17.11;74.14;101395.84;5057173;28;45458;-71
2022/10/31 05:52:35;;;;;;;;;20.00;20.00;;;;;17.11;74.52;101393.16;5055035;28;45383;-71
2022/10/31 05:55:01;;;;;;;;;21.50;21.50;;;;;17.12;74.29;101388.63;5053824;28;45310;-71
2022/10/31 05:57:26;;;;;;;;;24.50;23.25;;;;;17.14;74.37;101398.31;5040117;28;45945;-70
2022/10/31 05:59:52;;;;;;;;;18.25;17.75;;;;;17.15;74.25;101388.38;5051394;28;45360;-70
2022/10/31 06:02:19;;;;;;;;;23.50;22.75;;;;;17.09;74.59;101384.31;5040523;28;45297;-71
2022/10/31 06:04:44;;;;;;;;;24.00;22.75;;;;;16.79;74.36;101329.06;5044339;28;45355;-70
2022/10/31 06:07:10;;;;;;;;;16.75;16.75;;;;;17.05;74.57;101371.22;5047353;28;46335;-71
2022/10/31 06:09:35;;;;;;;;;18.25;17.75;;;;;17.13;74.25;101380.41;5037445;28;45457;-70
2022/10/31 06:12:00;;;;;;;;;20.75;19.00;;;;;17.14;74.51;101373.16;5050696;28;45408;-71
2022/10/31 06:14:26;;;;;;;;;20.50;20.50;;;;;16.72;74.29;101311.69;5041170;28;45469;-72
2022/10/31 06:16:51;;;;;;;;;17.25;16.25;;;;;17.09;74.46;101378.94;5041662;28;46213;-74
2022/10/31 06:19:16;;;;;;;;;16.00;16.00;;;;;16.91;74.80;101354.25;5050779;28;45429;-72
2022/10/31 06:21:42;;;;;;;;;21.50;21.50;;;;;17.07;74.93;101375.50;5054430;28;45602;-72
2022/10/31 06:24:07;;;;;;;;;14.25;13.25;;;;;16.74;74.95;101320.47;5054606;28;45409;-72
2022/10/31 06:26:32;;;;;;;;;22.25;22.25;;;;;17.06;74.85;101372.91;5054316;28;46331;-72
2022/10/31 06:28:58;;;;;;;;;20.25;18.50;;;;;17.10;74.79;101369.88;5054437;28;45443;-72
2022/10/31 06:31:23;;;;;;;;;17.50;16.25;;;;;17.10;74.88;101372.56;5052515;28;45473;-71
2022/10/31 06:33:48;;;;;;;;;19.75;18.75;;;;;16.79;74.87;101318.31;5054190;28;45564;-72
2022/10/31 06:36:13;;;;;;;;;21.00;21.00;;;;;17.10;74.88;101369.00;5054043;28;46317;-72
2022/10/31 06:38:39;;;;;;;;;21.50;19.25;;;;;17.08;74.67;101365.56;5054188;28;45395;-72
2022/10/31 06:41:05;;;;;;;;;18.50;15.25;;;;;17.06;75.01;101365.69;5053717;28;45411;-72
2022/10/31 06:43:31;;;;;;;;;18.50;16.50;;;;;17.06;75.17;101360.31;5049647;28;45345;-72
2022/10/31 06:45:56;;;;;;;;;13.75;10.50;;;;;16.96;75.34;101346.69;5057607;28;46203;-72
2022/10/31 06:48:22;;;;;;;;;14.00;12.50;;;;;17.06;75.22;101352.22;5073222;28;45404;-72
2022/10/31 06:50:47;;;;;;;;;13.00;13.00;;;;;17.08;75.03;101349.41;5057599;28;45278;-72
2022/10/31 06:53:14;;;;;;;;;19.00;19.00;;;;;17.07;74.82;101351.25;5051186;28;47899;-72
2022/10/31 06:55:40;;;;;;;;;16.00;16.00;;;;;17.10;75.18;101353.69;5056763;28;46325;-72
2022/10/31 06:58:05;;;;;;;;;16.75;15.50;;;;;16.98;75.35;101327.72;5057059;28;45489;-72
2022/10/31 07:00:31;;;;;;;;;17.50;16.00;;;;;17.10;75.24;101353.69;5039723;28;45371;-72
2022/10/31 07:03:05;;;;;;;;;18.00;18.00;;;;;16.65;75.21;101278.97;5057699;28;45454;-72
2022/10/31 07:05:30;;;;;;;;;16.75;15.75;;;;;17.11;75.14;101349.16;5051427;28;46191;-72
2022/10/31 07:07:58;;;;;;;;;17.25;16.25;;;;;17.14;75.07;101352.47;5057997;28;45530;-72
2022/10/31 07:10:25;;;;;;;;;17.50;15.00;;;;;17.14;74.93;101344.41;5057610;28;45412;-72
2022/10/31 07:12:55;;;;;;;;;18.75;17.75;;;;;17.17;74.95;101342.44;5057829;28;45963;-72
2022/10/31 07:15:21;;;;;;;;;21.50;17.00;;;;;17.03;75.04;101317.41;5056951;28;46379;-72
2022/10/31 07:17:46;;;;;;;;;23.50;18.25;;;;;17.20;74.88;101347.59;5057666;28;45391;-72
2022/10/31 07:20:12;;;;;;;;;14.75;14.75;;;;;17.21;74.75;101338.50;5057495;28;45372;-72
2022/10/31 07:22:37;;;;;;;;;14.75;13.00;;;;;17.21;74.58;101349.28;5057538;28;45349;-70
2022/10/31 07:25:03;;;;;;;;;15.00;14.00;;;;;17.20;74.84;101340.38;5058107;28;45416;-72
2022/10/31 07:27:35;;;;;;;;;18.00;16.50;;;;;16.87;74.95;101289.91;5056993;28;45292;-72
2022/10/31 07:30:01;;;;;;;;;15.00;14.00;;;;;17.20;75.03;101339.50;5072450;28;45328;-72
2022/10/31 07:32:26;;;;;;;;;17.00;14.75;;;;;17.14;75.09;101327.34;5057531;28;45413;-72
2022/10/31 07:34:51;;;;;;;;;15.50;14.50;;;;;17.24;74.85;101343.69;5055046;28;49293;-72
2022/10/31 07:37:17;;;;;;;;;18.50;16.00;;;;;17.21;74.74;101336.69;5050266;28;45506;-72
2022/10/31 07:39:42;;;;;;;;;16.25;15.25;;;;;17.27;74.75;101338.03;5037173;28;45441;-72
2022/10/31 07:42:07;;;;;;;;;17.50;16.75;;;;;17.29;74.81;101336.94;5037147;28;45303;-72
2022/10/31 07:44:32;;;;;;;;;17.00;15.00;;;;;17.31;74.38;101334.97;5037583;28;45357;-72
2022/10/31 07:46:58;;;;;;;;;21.25;17.50;;;;;17.25;74.65;101319.28;5047157;28;45353;-72
2022/10/31 07:49:25;;;;;;;;;17.75;16.00;;;;;17.33;74.39;101337.56;5037888;28;45807;-72
2022/10/31 07:51:50;;;;;;;;;16.00;15.75;;;;;16.94;74.41;101277.72;5036841;28;45328;-72
2022/10/31 07:54:16;;;;;;;;;15.50;14.75;;;;;17.32;74.33;101343.94;5035611;28;46634;-72
2022/10/31 07:56:41;;;;;;;;;12.00;12.00;;;;;16.94;74.41;101277.72;5038390;28;45356;-72
2022/10/31 07:59:06;;;;;;;;;16.75;15.50;;;;;17.34;74.58;101343.81;5045238;28;45653;-71
2022/10/31 08:01:32;;;;;;;;;14.75;14.75;;;;;17.27;74.56;101335.34;5036796;28;45477;-72
2022/10/31 08:03:57;;;;;;;;;16.50;16.50;;;;;17.36;74.35;101337.31;5036423;28;53577;-72
2022/10/31 08:06:22;;;;;;;;;18.00;13.75;;;;;17.35;74.29;101332.91;5036446;28;45386;-72
2022/10/31 08:08:47;;;;;;;;;16.75;14.25;;;;;17.13;74.17;101291.47;5036628;28;45363;-72
2022/10/31 08:11:13;;;;;;;;;18.75;16.00;;;;;17.37;74.48;101324.69;5036531;28;45437;-72
2022/10/31 08:13:38;;;;;;;;;19.50;15.25;;;;;17.25;74.59;101305.81;5047481;28;46099;-72
2022/10/31 08:16:04;;;;;;;;;16.75;15.75;;;;;17.35;74.62;101324.81;5036298;28;45365;-72
2022/10/31 08:18:30;;;;;;;;;15.00;14.50;;;;;17.37;74.82;101328.25;5053197;28;45336;-72
2022/10/31 08:20:55;;;;;;;;;16.00;16.00;;;;;17.40;74.72;101330.72;5056536;28;45389;-72
2022/10/31 08:23:21;;;;;;;;;16.50;14.75;;;;;17.40;74.66;101328.00;5055356;28;45494;-71
2022/10/31 08:25:47;;;;;;;;;16.25;14.00;;;;;17.42;74.65;101311.72;5047488;28;45459;-72
2022/10/31 08:28:13;;;;;;;;;19.50;15.00;;;;;17.48;74.24;101312.06;5035217;28;45402;-72
2022/10/31 08:30:39;;;;;;;;;19.50;17.75;;;;;17.54;74.22;101307.19;5036250;28;45588;-72
2022/10/31 08:33:11;;;;;;;;;17.25;17.00;;;;;17.57;73.94;101306.94;5035680;28;47145;-72
2022/10/31 08:35:36;;;;;;;;;14.25;11.50;;;;;17.38;74.23;101265.25;5017941;28;45443;-72
2022/10/31 08:38:02;;;;;;;;;16.75;14.75;;;;;17.63;73.54;101296.50;5035991;28;45352;-72
2022/10/31 08:40:30;;;;;;;;;18.50;16.50;;;;;17.56;73.67;101275.53;5035733;28;45573;-72
2022/10/31 08:43:04;;;;;;;;;14.00;12.25;;;;;17.63;73.94;101280.31;5035441;28;46322;-72
2022/10/31 08:45:32;;;;;;;;;18.50;18.25;;;;;17.62;74.37;101272.34;5035620;28;45333;-72
2022/10/31 08:48:03;;;;;;;;;17.50;17.50;;;;;17.12;73.93;101183.75;5035858;28;45266;-71
2022/10/31 08:50:30;;;;;;;;;22.25;19.00;;;;;17.71;74.04;101270.72;5046663;28;45470;-72
2022/10/31 08:53:06;;;;;;;;;17.75;15.50;;;;;17.70;73.84;101259.09;5035232;28;47500;-71
2022/10/31 08:55:34;;;;;;;;;20.25;18.25;;;;;17.80;74.23;101265.47;5035479;28;45230;-69
2022/10/31 08:57:59;;;;;;;;;19.25;17.25;;;;;17.89;73.77;101252.19;5042173;28;45469;-72
2022/10/31 09:00:25;;;;;;;;;17.50;16.25;;;;;17.64;73.47;101202.97;5054362;28;45633;-70
2022/10/31 09:03:03;;;;;;;;;17.50;14.00;;;;;18.10;73.11;101239.66;5055550;28;46074;-70
2022/10/31 09:05:28;;;;;;;;;17.75;16.25;;;;;17.49;72.77;101110.66;5055501;28;45368;-70
2022/10/31 09:07:59;;;;;;;;;18.50;15.75;;;;;18.32;72.94;101232.44;5071489;28;45378;-72
2022/10/31 09:10:25;;;;;;;;;17.50;15.75;;;;;18.47;71.98;101225.72;5055661;28;45451;-72
2022/10/31 09:13:14;;;;;;;;;16.75;16.75;;;;;18.68;71.99;101233.00;5055149;28;46365;-72
2022/10/31 09:15:41;;;;;;;;;20.75;17.00;;;;;19.04;70.93;101222.69;5055477;28;45441;-72
2022/10/31 09:18:08;;;;;;;;;20.25;17.00;;;;;19.23;70.01;101211.13;5058044;28;45274;-71
2022/10/31 09:20:35;;;;;;;;;20.50;18.50;;;;;19.45;68.61;101215.47;5058009;28;45400;-71
2022/10/31 09:23:04;;;;;;;;;16.00;16.00;;;;;19.50;68.37;101196.09;5056429;28;47514;-71
2022/10/31 09:25:30;;;;;;;;;18.50;16.25;;;;;19.71;67.35;101201.44;5055442;28;45224;-71
2022/10/31 09:27:59;;;;;;;;;17.25;17.00;;;;;19.80;67.47;101197.06;5052962;28;45648;-71
2022/10/31 09:30:27;;;;;;;;;19.75;18.25;;;;;19.85;67.70;101202.06;5053650;28;45569;-71
2022/10/31 09:32:57;;;;;;;;;18.75;17.00;;;;;19.93;66.76;101186.81;5053344;28;48347;-71
2022/10/31 09:35:23;;;;;;;;;18.50;18.50;;;;;19.98;65.94;101138.50;5054938;28;45292;-71
2022/10/31 09:37:54;;;;;;;;;16.00;15.00;;;;;21.23;63.28;101192.72;5054032;28;45506;-71
2022/10/31 09:40:20;;;;;;;;;18.50;17.50;;;;;23.06;58.68;101176.06;5054996;28;45533;-71
2022/10/31 09:42:50;;;;;;;;;21.00;19.50;;;;;24.38;54.75;101173.69;5054863;28;45337;-70
2022/10/31 09:45:29;;;;;;;;;20.50;18.25;;;;;24.51;53.30;101168.56;5055089;28;45441;-71
2022/10/31 09:48:03;;;;;;;;;22.25;18.00;;;;;23.50;55.70;101162.31;5055441;28;45281;-71
2022/10/31 09:50:33;;;;;;;;;17.00;15.75;;;;;23.28;55.64;101161.06;5055289;28;45312;-71
2022/10/31 09:53:05;;;;;;;;;17.25;16.25;;;;;23.39;56.21;101161.75;5055048;28;46265;-72
2022/10/31 09:55:44;;;;;;;;;15.00;14.75;;;;;23.55;56.01;101156.34;5055151;28;45377;-72
2022/10/31 09:58:20;;;;;;;;;19.00;17.00;;;;;23.65;55.67;101157.06;5055523;28;45333;-71
2022/10/31 10:00:47;;;;;;;;;17.25;16.50;;;;;23.64;55.50;101147.19;5055452;28;45396;-70
2022/10/31 10:03:18;;;;;;;;;17.25;17.25;;;;;23.67;56.07;101159.63;5054787;28;46561;-71
2022/10/31 10:05:53;;;;;;;;;16.25;15.00;;;;;23.30;55.74;101084.69;5054350;28;45480;-71
2022/10/31 10:08:20;;;;;;;;;18.50;16.25;;;;;23.32;55.56;101101.69;5055006;28;45254;-71
2022/10/31 10:54:01;;;;;;;;;15.00;15.00;;;;;21.46;59.84;101063.78;5958179;23;46681;-74
2022/10/31 10:56:49;;;;;;;;;12.50;12.25;;;;;21.47;60.32;101038.38;4979065;22;46531;-68
2022/10/31 10:59:19;;;;;;;;;12.75;11.75;;;;;21.61;60.38;101017.13;4946480;28;45872;-66
2022/10/31 11:01:47;;;;;;;;;13.75;13.75;;;;;21.78;59.06;101008.13;4950935;28;45547;-66
2022/10/31 11:04:30;;;;;;;;;14.00;13.75;;;;;21.88;59.14;100980.84;4953668;28;45464;-66
2022/10/31 11:07:03;;;;;;;;;9.00;8.75;;;;;21.94;58.60;100969.34;4957618;28;45372;-67
2022/10/31 11:09:29;;;;;;;;;19.00;17.50;;;;;21.98;58.85;100959.03;4957629;28;45587;-67
2022/10/31 11:11:55;;;;;;;;;15.00;13.75;;;;;22.13;58.83;100953.84;4957885;28;45373;-67
2022/10/31 11:14:22;;;;;;;;;13.50;13.50;;;;;22.31;58.21;100961.88;4950128;28;45335;-68
2022/10/31 11:16:53;;;;;;;;;13.00;12.25;;;;;22.24;58.49;100934.56;4938383;28;45432;-67
2022/10/31 11:19:22;;;;;;;;;15.25;14.00;;;;;22.46;58.18;100960.31;4938545;28;45463;-68
2022/10/31 11:21:48;;;;;;;;;15.25;14.50;;;;;22.17;57.28;100915.34;4938485;28;45424;-68
2022/10/31 11:24:18;;;;;;;;;14.75;12.50;;;;;22.52;58.02;100964.22;4938221;28;45443;-68
2022/10/31 11:26:46;;;;;;;;;12.25;11.50;;;;;22.63;56.93;100973.94;4938155;28;45833;-67
2022/10/31 11:29:19;;;;;;;;;14.50;12.25;;;;;22.73;56.88;100969.25;4935762;28;45400;-67
2022/10/31 11:31:48;;;;;;;;;14.25;14.25;;;;;22.87;56.06;100966.91;4939423;28;45468;-68
2022/10/31 11:34:41;;;;;;;;;8.50;5.50;;;;;22.99;55.21;100969.13;4938432;28;45348;-68
2022/10/31 11:37:29;;;;;;;;;13.25;11.25;;;;;23.07;55.18;100970.16;4937973;28;46119;-68
2022/10/31 11:40:02;;;;;;;;;12.75;10.25;;;;;22.78;54.81;100909.78;4937930;28;45352;-67
2022/10/31 11:42:38;;;;;;;;;10.50;9.50;;;;;23.31;54.97;100948.44;4937917;28;45522;-67
2022/10/31 11:45:15;;;;;;;;;13.50;11.75;;;;;23.18;54.21;100908.13;4938101;28;45446;-67
2022/10/31 11:47:46;;;;;;;;;11.50;10.25;;;;;23.45;53.83;100936.03;4938114;28;47087;-67
2022/10/31 11:50:20;;;;;;;;;13.00;13.00;;;;;23.49;53.55;100928.38;4938093;28;45300;-67
2022/10/31 11:52:46;;;;;;;;;12.00;8.75;;;;;23.59;53.15;100929.06;4952932;28;45366;-67
2022/10/31 11:55:11;;;;;;;;;14.75;10.25;;;;;23.65;52.39;100916.63;4937901;28;45381;-67
2022/10/31 11:57:47;;;;;;;;;13.25;11.75;;;;;23.26;52.96;100846.56;4943820;28;47694;-67
2022/10/31 12:00:36;;;;;;;;;13.75;12.50;;;;;23.72;52.53;100906.72;4957398;28;45408;-68